Richmond's Hourly Summary for Saturday, April 15, 2017
Hour Temp
(f)
RH
(%)
Solar Rad.
(MJ/m2)
Rainfall
(in)
Wind
(mph)
4/15/2017 12:00 AM 67 91 0 0 2.07
4/15/2017 1:00 AM 65 94 0 0 0.74
4/15/2017 2:00 AM 64 95 0 0 0
4/15/2017 3:00 AM 64 97 0 0 0
4/15/2017 4:00 AM 63 97 0 0 0
4/15/2017 5:00 AM 62 98 0 0 0
4/15/2017 6:00 AM 62 98 0 0 0.13
4/15/2017 7:00 AM 62 99 0 0 0.27
4/15/2017 8:00 AM 62 99 0.16 0 0.91
4/15/2017 9:00 AM 66 99 0.78 0 1.99
4/15/2017 10:00 AM 72 81 1.73 0 4.36
4/15/2017 11:00 AM 76 64 2.32 0 5.84
4/15/2017 12:00 PM 78 58 2.74 0 5.47
4/15/2017 1:00 PM 80 53 2.88 0 6.79
4/15/2017 2:00 PM 80 53 2.09 0 7.62
4/15/2017 3:00 PM 80 54 2.05 0 8.02
4/15/2017 4:00 PM 80 55 1.81 0 8.97
4/15/2017 5:00 PM 80 42 1.88 0 8.01
4/15/2017 6:00 PM 80 46 1.57 0 7.96
4/15/2017 7:00 PM 78 48 0.72 0 6.37
4/15/2017 8:00 PM 75 59 0.14 0 4.19
4/15/2017 9:00 PM 71 75 0 0 4.7
4/15/2017 10:00 PM 70 86 0 0 4.27
4/15/2017 11:00 PM 70 92 0 0 4.79
Data Summary 71 76 20.87 0.00 3.89